Latest Coastal Weather Observations for Coolangatta (QLD)

IDN60701

Issued at 12:21 am EDT Thursday 21 February 2019 (issued every 10 minutes, with the page automatically refreshed every 10 minutes)

About coastal observations | Map of coastal stations | Coastal observations for NSW | Marine services | Other Formats
Station Details ID: 040717 Name: COOLANGATTA Lat: -28.17 Lon: 153.51 Height: 4.0 m
Data from the previous 72 hours. | See also: Recent months at Coolangatta (QLD)
Date/Time
EDT
Wind Sea
Height
m
Swell Vis
km
Cloud Weather Temp
°C
Press
hPa
Rain since
9am
mm
Dir  Spd
kts
Gust
kts
Height
m
Period
s
Dir
21/12:00am SSW 10 14 - - - - - Partly cloudy - 25.4 1009.3 0.0
 
Date/Time
EDT
Wind Sea
Height
m
Swell Vis
km
Cloud Weather Temp
°C
Press
hPa
Rain since
9am
mm
Dir  Spd
kts
Gust
kts
Height
m
Period
s
Dir
20/11:30pm S 9 11 - - - - - Cloudy - 25.5 1009.0 0.0
20/11:00pm S 7 9 - - - - - Partly cloudy - 25.1 1008.8 0.0
20/10:30pm S 7 10 - - - - 10 Partly cloudy - 25.1 1008.6 0.0
20/10:00pm S 5 7 - - - - 10 Cloudy - 25.3 1008.4 0.0
20/09:30pm S 5 7 - - - - 10 Partly cloudy - 25.3 1008.1 0.0
20/09:00pm S 4 5 - - - - 10 Cloudy - 25.2 1007.4 0.0
20/08:30pm SSE 6 7 - - - - 10 Partly cloudy - 25.3 1006.9 0.0
20/08:00pm SE 7 9 - - - - 10 - - 25.6 1006.7 0.0
20/07:30pm SE 8 10 - - - - 10 - - 26.2 1006.6 0.0
20/07:00pm SE 9 12 - - - - 10 Mostly clear - 26.6 1006.2 0.0
20/06:30pm SE 10 14 - - - - 10 - - 27.4 1006.1 0.0
20/06:00pm SE 11 16 - - - - 10 - - 28.1 1005.9 0.0
20/05:30pm SE 14 19 - - - - 10 Partly cloudy - 27.9 1005.8 0.0
20/05:00pm SE 14 18 - - - - 10 - - 28.2 1005.9 0.0
20/04:30pm SE 15 19 - - - - 10 Partly cloudy - 28.8 1006.0 0.0
20/04:00pm SE 16 21 - - - - 10 Mostly clear - 28.4 1006.1 0.0
20/03:30pm SE 14 22 - - - - 10 - - 30.3 1006.1 0.0
20/03:00pm SE 14 19 - - - - 10 - - 30.0 1006.7 0.0
20/02:30pm ESE 15 19 - - - - 10 - - 30.2 1007.0 0.0
20/02:00pm ESE 17 21 - - - - 10 - - 29.7 1007.3 0.0
20/01:30pm ESE 15 20 - - - - 10 - - 30.3 1007.7 0.0
20/01:00pm ESE 16 19 - - - - 10 Mostly clear - 30.2 1007.9 0.0
20/12:30pm SE 14 19 - - - - 10 - - 30.6 1008.2 0.0
20/12:00pm SE 13 19 - - - - 10 - - 30.2 1008.6 0.0
20/11:30am SE 14 20 - - - - 10 - - 30.1 1009.0 0.0
20/11:00am SE 13 18 - - - - 10 Partly cloudy - 29.6 1009.3 0.0
20/10:30am S 8 11 - - - - 10 Partly cloudy - 28.5 1009.3 0.0
20/10:00am SSE 6 10 - - - - 10 Mostly cloudy - 27.5 1009.3 0.0
20/09:30am SSW 8 11 - - - - 10 Partly cloudy - 26.9 1009.2 0.0
20/09:00am S 9 12 - - - - 10 - - 27.0 1009.1 0.0
20/08:30am S 7 9 - - - - 10 - - 26.3 1008.8 0.0
20/08:00am S 6 10 - - - - 10 - - 25.4 1008.7 0.0
20/07:30am SSW 5 7 - - - - 10 - - 23.9 1008.5 0.0
20/07:00am SSW 3 4 - - - - - - - 22.6 1008.3 0.0
20/06:30am S 4 4 - - - - - Partly cloudy - 22.4 1008.1 0.0
20/06:00am SSW 5 6 - - - - - Partly cloudy - 22.7 1007.8 0.0
20/05:30am SSW 4 5 - - - - - Partly cloudy - 22.3 1007.6 0.0
20/05:00am S 4 5 - - - - - Partly cloudy - 22.4 1007.4 0.0
20/04:30am S 3 5 - - - - - Partly cloudy - 22.8 1007.2 0.0
20/04:00am S 5 6 - - - - - Mostly cloudy - 22.6 1007.1 0.0
20/03:30am S 6 7 - - - - - Cloudy - 23.2 1007.3 0.0
20/03:00am S 5 7 - - - - - Cloudy - 23.0 1007.1 0.0
20/02:30am SW 3 4 - - - - - Cloudy - 22.6 1007.0 0.0
20/02:00am WSW 3 3 - - - - - Cloudy - 22.3 1007.2 0.0
20/01:30am WSW 2 4 - - - - - Cloudy - 22.3 1007.3 0.0
20/01:00am WNW 2 3 - - - - 10 Mostly cloudy - 22.4 1007.7 0.0
20/12:30am WNW 4 5 - - - - 10 Partly cloudy - 22.1 1007.7 0.0
20/12:00am WNW 4 5 - - - - 10 Partly cloudy - 22.5 1007.8 0.0
 
Date/Time
EDT
Wind Sea
Height
m
Swell Vis
km
Cloud Weather Temp
°C
Press
hPa
Rain since
9am
mm
Dir  Spd
kts
Gust
kts
Height
m
Period
s
Dir
19/11:30pm WNW 4 5 - - - - 10 Partly cloudy - 22.8 1007.8 0.0
19/11:00pm NW 4 6 - - - - 10 - - 23.2 1008.0 0.0
19/10:30pm NNW 5 6 - - - - 10 - - 24.3 1008.0 0.0
19/10:00pm N 6 8 - - - - 10 - - 24.6 1008.0 0.0
19/09:30pm N 6 7 - - - - 10 - - 24.8 1007.8 0.0
19/09:00pm N 6 7 - - - - 10 - - 25.1 1007.5 0.0
19/08:30pm N 5 7 - - - - 10 - - 25.0 1007.3 0.0
19/08:00pm N 7 9 - - - - 10 - - 25.7 1007.1 0.0
19/07:30pm NNE 7 9 - - - - 10 - - 26.0 1006.7 0.0
19/07:00pm NNE 7 9 - - - - 10 - - 26.3 1006.4 0.0
19/06:30pm NE 9 13 - - - - 10 - - 26.8 1006.1 0.0
19/06:00pm NE 9 11 - - - - 10 - - 27.2 1005.8 0.0
19/05:30pm NE 10 13 - - - - 10 - - 27.6 1005.7 0.0
19/05:00pm NE 9 11 - - - - 10 - - 28.3 1005.6 0.0
19/04:30pm NE 9 12 - - - - 10 - - 28.3 1005.6 0.0
19/04:00pm NE 9 12 - - - - 10 - - 28.9 1005.7 0.0
19/03:30pm NE 10 13 - - - - 10 - - 28.5 1005.9 0.0
19/03:00pm ENE 11 13 - - - - 10 - - 28.7 1006.3 0.0
19/02:30pm NE 12 15 - - - - 10 - - 29.3 1006.7 0.0
19/02:00pm NE 11 15 - - - - 10 - - 28.5 1007.0 0.0
19/01:30pm NE 11 15 - - - - 10 - - 28.8 1007.3 0.0
19/01:00pm NE 11 14 - - - - 10 - - 28.8 1007.6 0.0
19/12:30pm NE 11 13 - - - - 10 - - 28.4 1008.0 0.0
19/12:00pm NE 10 12 - - - - 10 - - 28.3 1008.4 0.0
19/11:30am NNE 9 11 - - - - 10 - - 27.5 1008.7 0.0
19/11:00am NNE 8 11 - - - - 10 - - 27.7 1009.1 0.0
19/10:30am NNE 7 10 - - - - 10 - - 27.3 1009.1 0.0
19/10:00am NNE 7 9 - - - - 10 - - 26.5 1009.1 0.0
19/09:30am N 4 7 - - - - 10 - - 26.7 1009.2 0.0
19/09:00am NNE 3 5 - - - - 10 - - 25.7 1009.1 0.0
19/08:30am CALM 0 0 - - - - 10 - - 24.3 1009.0 0.0
19/08:00am CALM 0 2 - - - - 10 - - 22.2 1008.9 0.0
19/07:30am CALM 0 3 - - - - 10 - - 20.4 1008.7 0.0
19/07:00am CALM 0 0 - - - - - - - 19.1 1008.7 0.0
19/06:30am CALM 0 3 - - - - - - - 18.8 1008.6 0.0
19/06:00am SW 1 3 - - - - - - - 18.7 1008.6 0.0
19/05:30am SW 3 4 - - - - - - - 19.0 1008.6 0.0
19/05:00am SW 2 5 - - - - - - - 19.1 1008.6 0.0
19/04:30am SSW 1 3 - - - - - - - 19.2 1008.7 0.0
19/04:00am SSW 3 4 - - - - - - - 19.4 1008.8 0.0
19/03:30am SW 1 3 - - - - - - - 19.5 1009.1 0.0
19/03:00am SW 2 3 - - - - - - - 19.6 1009.3 0.0
19/02:30am CALM 0 0 - - - - - - - 20.2 1009.5 0.0
19/02:00am SW 2 4 - - - - - Partly cloudy - 20.4 1009.7 0.0
19/01:30am SSW 3 4 - - - - - Partly cloudy - 20.8 1010.1 0.0
19/01:00am WSW 7 8 - - - - - Mostly clear - 21.0 1010.5 0.0
19/12:30am WSW 6 7 - - - - - Partly cloudy - 21.0 1010.7 0.0
19/12:00am WSW 5 6 - - - - - Partly cloudy - 21.3 1010.9 0.0
 
Date/Time
EDT
Wind Sea
Height
m
Swell Vis
km
Cloud Weather Temp
°C
Press
hPa
Rain since
9am
mm
Dir  Spd
kts
Gust
kts
Height
m
Period
s
Dir
18/11:30pm WSW 6 7 - - - - - Partly cloudy - 21.4 1011.1 0.0
18/11:00pm WSW 5 7 - - - - - Partly cloudy - 21.9 1011.2 0.0
18/10:30pm WSW 5 6 - - - - 10 Partly cloudy - 22.4 1011.3 0.0
18/10:00pm WSW 4 6 - - - - 10 Mostly clear - 22.6 1011.3 0.0
18/09:30pm SE 3 6 - - - - 10 - - 23.4 1011.2 0.0
18/09:00pm ESE 6 7 - - - - 10 Partly cloudy - 24.6 1011.0 0.0
18/08:30pm ESE 7 10 - - - - 10 Partly cloudy - 24.9 1010.7 0.0
18/08:00pm ESE 8 12 - - - - 10 - - 25.0 1010.3 0.0
18/07:30pm ESE 7 11 - - - - 10 - - 25.1 1009.9 0.0
18/07:00pm ESE 10 13 - - - - 10 - - 25.7 1009.6 0.0
18/06:30pm ESE 11 15 - - - - 10 - - 26.3 1009.4 0.0
18/06:00pm ESE 13 16 - - - - 10 - - 27.2 1009.4 0.0
18/05:30pm ESE 12 16 - - - - 10 - - 27.9 1009.1 0.0
18/05:00pm ESE 13 17 - - - - 10 - - 28.1 1009.1 0.0
18/04:30pm ESE 14 18 - - - - 10 - - 28.3 1009.2 0.0
18/04:00pm E 13 17 - - - - 10 - - 28.6 1009.5 0.0
18/03:30pm ESE 13 19 - - - - 10 - - 29.3 1009.7 0.0
18/03:00pm E 13 17 - - - - 10 - - 29.6 1010.0 0.0
18/02:30pm ESE 12 15 - - - - 10 - - 29.3 1010.4 0.0
18/02:00pm ESE 12 14 - - - - 10 - - 28.5 1010.8 0.0
18/01:30pm ESE 11 15 - - - - 10 Partly cloudy - 29.2 1011.0 0.0
18/01:00pm ESE 12 17 - - - - 10 Mostly clear - 28.4 1011.2 0.0
18/12:30pm SE 10 15 - - - - 10 Partly cloudy - 28.7 1011.6 0.0
18/12:00pm SE 11 17 - - - - 10 Partly cloudy - 28.5 1011.8 0.0
18/11:30am ESE 10 15 - - - - 10 Partly cloudy - 27.9 1012.3 0.0
18/11:00am S 6 9 - - - - 10 Partly cloudy - 28.0 1012.4 0.0
18/10:30am SSE 9 13 - - - - 10 Partly cloudy - 25.8 1012.6 0.0
18/10:00am S 8 11 - - - - 10 Partly cloudy - 26.2 1012.4 0.0
18/09:30am S 8 12 - - - - 10 - - 26.2 1012.2 0.0
18/09:00am S 8 11 - - - - 10 Partly cloudy - 26.3 1012.4 0.0
18/08:30am SSW 6 9 - - - - 10 Partly cloudy - 24.0 1012.2 0.0
18/08:00am SSW 4 6 - - - - 10 Partly cloudy - 23.1 1012.1 0.0
18/07:30am SW 2 4 - - - - - Partly cloudy - 22.0 1012.1 0.0
18/07:00am WSW 3 5 - - - - - - - 19.9 1011.8 0.0
18/06:30am SSW 4 5 - - - - - - - 19.4 1011.6 0.0
18/06:00am WSW 3 3 - - - - - - - 19.7 1011.5 0.0
18/05:30am SW 4 6 - - - - - Partly cloudy - 19.6 1011.2 0.0
18/05:00am SW 3 4 - - - - - Partly cloudy - 19.7 1011.2 0.0
18/04:30am SW 2 4 - - - - - - - 19.8 1011.3 0.0
18/04:00am SW 4 5 - - - - - Mostly clear - 19.5 1011.5 0.0
18/03:30am S 4 5 - - - - - - - 19.9 1011.6 0.0
18/03:00am CALM 0 0 - - - - 10 Partly cloudy - 20.3 1011.8 0.0
18/02:30am WSW 5 7 - - - - 10 Partly cloudy - 20.7 1011.9 0.0
18/02:00am SW 6 7 - - - - 10 Partly cloudy - 20.7 1012.2 0.0
18/01:30am SW 5 6 - - - - 10 Partly cloudy - 20.6 1012.6 0.0

Other formats

Comma delimited format used in spreadsheet applications
http://www.bom.gov.au/fwo/IDN60701/IDN60701.94592.axf

JavaScript Object Notation format (JSON) in row-major order
http://www.bom.gov.au/fwo/IDN60701/IDN60701.94592.json

Data quality

Most of these data are generated automatically and are frequently updated. Quality checks on data are not normally performed. It is possible for incorrect values to appear. Refer to information at About Latest Weather Observations and please check the disclaimer before using these data.